LLW weather

Lilongwe International Airport
Lilongwe, Lilongwe District, Malawi

Public forecast

Using degrees Celsius for public forecast. Weather courtesy of forecast.io.

METAR (pilot weather report)

Retrieved 2019/08/22 08:00 UTC (2 minutes ago):

FWKI 220800Z 16011KT CAVOK 18/09 Q1028 NOSIG

TAF (pilot weather forecast)

Retrieved 2019/08/22 06:39 UTC (1 hour ago):

TAF TAF FWKI 220400Z 2206/2312 16008KT CAVOK BECMG 2207/2209 FEW025 BECMG 2210/2212 FEW030 FM221400 16006KT CAVOK BECMG 2306/2308 16006KT 9999 FEW015